Time;durP1;ratioP1;P1;durP2;ratioP2;P2;SDS_P1;SDS_P2;PMS_P1;PMS_P2;Temp;Humidity;BMP_temperature;BMP_pressure;BME280_temperature;BME280_humidity;BME280_pressure;Samples;Min_cycle;Max_cycle;Signal;HPM_P1;HPM_P2
2023/04/15 00:00:06;;;;;;;13.80;6.55;;;6.60;99.90;;;;;;4915541;29;20047;-56
2023/04/15 00:02:32;;;;;;;15.18;6.47;;;6.50;99.90;;;;;;4916701;29;21067;-52
2023/04/15 00:04:57;;;;;;;14.10;6.50;;;6.50;99.90;;;;;;4917913;28;20055;-56
2023/04/15 00:07:23;;;;;;;11.90;6.70;;;6.60;99.90;;;;;;4920799;28;20162;-52
2023/04/15 00:09:49;;;;;;;15.20;6.38;;;6.50;99.90;;;;;;4917661;28;20034;-53
2023/04/15 00:12:15;;;;;;;13.00;6.50;;;6.60;99.90;;;;;;4922434;29;20062;-52
2023/04/15 00:14:40;;;;;;;13.63;6.93;;;6.50;99.90;;;;;;4920600;29;20684;-53
2023/04/15 00:17:07;;;;;;;11.63;6.22;;;6.50;99.90;;;;;;4920460;28;20102;-53
2023/04/15 00:19:33;;;;;;;13.38;6.18;;;6.40;99.90;;;;;;4918780;29;20039;-52
2023/04/15 00:21:59;;;;;;;13.65;6.75;;;6.40;99.90;;;;;;4920418;28;20047;-55
2023/04/15 00:24:25;;;;;;;13.55;6.15;;;6.40;99.90;;;;;;4920720;28;20093;-52
2023/04/15 00:26:51;;;;;;;11.63;6.60;;;6.40;99.90;;;;;;4917839;29;20161;-55
2023/04/15 00:29:17;;;;;;;11.43;7.22;;;6.30;99.90;;;;;;4919991;29;20376;-53
2023/04/15 00:31:43;;;;;;;12.63;7.43;;;6.30;99.90;;;;;;4923548;28;20058;-53
2023/04/15 00:34:09;;;;;;;13.93;7.20;;;6.20;99.90;;;;;;4911645;28;24397;-53
2023/04/15 00:36:35;;;;;;;16.15;7.28;;;6.30;99.90;;;;;;4910866;28;20498;-53
2023/04/15 00:39:02;;;;;;;13.93;7.30;;;6.30;99.90;;;;;;4920923;29;20051;-54
2023/04/15 00:41:27;;;;;;;16.50;7.30;;;6.20;99.90;;;;;;4923081;28;20492;-56
2023/04/15 00:43:53;;;;;;;11.63;7.50;;;6.20;99.90;;;;;;4923513;28;20039;-54
2023/04/15 00:46:20;;;;;;;16.48;7.50;;;6.20;99.90;;;;;;4925273;28;20054;-52
2023/04/15 00:48:47;;;;;;;15.18;8.02;;;6.20;99.90;;;;;;4925730;28;20167;-55
2023/04/15 00:51:13;;;;;;;13.98;7.57;;;6.10;99.90;;;;;;4927386;28;20150;-55
2023/04/15 00:53:40;;;;;;;15.60;8.13;;;6.10;99.90;;;;;;4929803;29;20040;-53
2023/04/15 00:56:06;;;;;;;13.50;7.97;;;6.00;99.90;;;;;;4928088;28;20047;-53
2023/04/15 00:58:31;;;;;;;17.13;8.30;;;6.00;99.90;;;;;;4927119;28;20043;-56
2023/04/15 01:00:58;;;;;;;15.32;8.60;;;5.90;99.90;;;;;;4927057;29;20078;-56
2023/04/15 01:03:24;;;;;;;17.83;8.23;;;5.90;99.90;;;;;;4929041;28;20047;-56
2023/04/15 01:05:57;;;;;;;17.30;9.27;;;5.90;99.90;;;;;;4929000;28;20063;-56
2023/04/15 01:08:27;;;;;;;13.18;8.52;;;5.90;99.90;;;;;;4938325;28;20059;-56
2023/04/15 01:10:58;;;;;;;13.88;8.75;;;5.90;99.90;;;;;;4931516;29;20644;-54
2023/04/15 01:13:25;;;;;;;14.13;7.95;;;5.90;99.90;;;;;;4917755;29;20039;-52
2023/04/15 01:15:52;;;;;;;14.90;8.38;;;5.90;99.90;;;;;;4923594;29;20143;-55
2023/04/15 01:18:19;;;;;;;14.98;8.25;;;5.80;99.90;;;;;;4929153;28;20499;-54
2023/04/15 01:20:45;;;;;;;11.55;8.00;;;5.80;99.90;;;;;;4923417;28;20819;-56
2023/04/15 01:23:12;;;;;;;15.45;8.80;;;5.80;99.90;;;;;;4922891;29;20940;-56
2023/04/15 01:25:38;;;;;;;16.65;9.15;;;5.80;99.90;;;;;;4928458;29;20043;-56
2023/04/15 01:28:04;;;;;;;12.73;8.68;;;5.80;99.90;;;;;;4923452;28;20126;-54
2023/04/15 01:30:34;;;;;;;13.00;8.73;;;5.70;99.90;;;;;;4923105;29;20051;-55
2023/04/15 01:33:00;;;;;;;18.30;10.13;;;5.70;99.90;;;;;;4918866;29;20050;-57
2023/04/15 01:35:26;;;;;;;16.20;9.27;;;5.70;99.90;;;;;;4921707;29;20555;-53
2023/04/15 01:37:53;;;;;;;16.80;10.50;;;5.70;99.90;;;;;;4920617;28;20051;-54
2023/04/15 01:40:19;;;;;;;16.92;9.52;;;5.70;99.90;;;;;;4920623;28;20110;-56
2023/04/15 01:42:45;;;;;;;16.42;10.27;;;5.70;99.90;;;;;;4918615;28;20035;-56
2023/04/15 01:45:12;;;;;;;15.02;9.95;;;5.70;99.90;;;;;;4924879;29;20079;-56
2023/04/15 01:47:38;;;;;;;17.20;11.13;;;5.70;99.90;;;;;;4920414;28;20078;-55
2023/04/15 01:50:05;;;;;;;16.30;10.68;;;5.70;99.90;;;;;;4913073;28;20064;-54
2023/04/15 01:52:31;;;;;;;18.23;10.30;;;5.70;99.90;;;;;;4926346;28;20055;-52
2023/04/15 01:54:57;;;;;;;14.00;9.98;;;5.60;99.90;;;;;;4926752;28;20968;-54
2023/04/15 01:57:23;;;;;;;16.92;10.68;;;5.60;99.90;;;;;;4925221;28;20371;-55
2023/04/15 01:59:48;;;;;;;19.88;11.40;;;5.60;99.90;;;;;;4918431;29;20051;-52
2023/04/15 02:02:14;;;;;;;19.30;11.23;;;5.60;99.90;;;;;;4927651;28;20047;-56
2023/04/15 02:04:40;;;;;;;20.90;11.18;;;5.60;99.90;;;;;;4922392;28;20220;-55
2023/04/15 02:07:06;;;;;;;19.83;11.77;;;5.60;99.90;;;;;;4922390;28;20107;-56
2023/04/15 02:09:31;;;;;;;17.73;12.20;;;5.50;99.90;;;;;;4924081;28;20054;-55
2023/04/15 02:11:57;;;;;;;20.73;12.02;;;5.50;99.90;;;;;;4925414;28;20466;-56
2023/04/15 02:14:23;;;;;;;20.35;13.15;;;5.50;99.90;;;;;;4926454;28;20175;-54
2023/04/15 02:16:49;;;;;;;22.58;12.55;;;5.40;99.90;;;;;;4925255;28;20154;-53
2023/04/15 02:19:15;;;;;;;18.85;11.73;;;5.40;99.90;;;;;;4927055;29;20050;-56
2023/04/15 02:21:40;;;;;;;17.35;12.18;;;5.40;99.90;;;;;;4924350;29;20070;-56
2023/04/15 02:24:06;;;;;;;18.73;11.50;;;5.40;99.90;;;;;;4924006;28;20050;-55
2023/04/15 02:26:32;;;;;;;17.77;11.68;;;5.30;99.90;;;;;;4927169;29;20163;-54
2023/04/15 02:28:58;;;;;;;20.30;12.43;;;5.30;99.90;;;;;;4928028;28;20058;-56
2023/04/15 02:31:24;;;;;;;17.83;11.95;;;5.30;99.90;;;;;;4924530;29;20035;-53
2023/04/15 02:33:50;;;;;;;17.70;12.27;;;5.30;99.90;;;;;;4923118;29;20162;-56
2023/04/15 02:36:16;;;;;;;15.65;11.40;;;5.20;99.90;;;;;;4919196;28;20043;-55
2023/04/15 02:38:42;;;;;;;19.55;11.68;;;5.30;99.90;;;;;;4917904;29;20379;-53
2023/04/15 02:41:09;;;;;;;16.00;11.38;;;5.20;99.90;;;;;;4916214;28;22083;-52
2023/04/15 02:43:35;;;;;;;17.75;12.45;;;5.20;99.90;;;;;;4919643;28;20162;-53
2023/04/15 02:46:01;;;;;;;15.75;11.68;;;5.20;99.90;;;;;;4919236;28;20178;-53
2023/04/15 02:48:26;;;;;;;22.38;12.90;;;5.20;99.90;;;;;;4913835;28;20061;-52
2023/04/15 02:50:52;;;;;;;18.17;12.13;;;5.20;99.90;;;;;;4903957;28;20078;-54
2023/04/15 02:53:18;;;;;;;18.20;12.55;;;5.10;99.90;;;;;;4918358;29;20066;-52
2023/04/15 02:55:45;;;;;;;17.98;12.65;;;5.20;99.90;;;;;;4919455;29;24395;-52
2023/04/15 02:58:10;;;;;;;16.63;11.73;;;5.10;99.90;;;;;;4906500;28;20048;-55
2023/04/15 03:00:36;;;;;;;21.02;12.88;;;5.10;99.90;;;;;;4918116;28;20407;-52
2023/04/15 03:03:04;;;;;;;19.83;11.95;;;5.10;99.90;;;;;;4917598;28;20047;-54
2023/04/15 03:05:30;;;;;;;19.05;12.40;;;5.10;99.90;;;;;;4919767;29;20518;-51
2023/04/15 03:07:56;;;;;;;21.40;13.05;;;5.10;99.90;;;;;;4934970;28;20079;-52
2023/04/15 03:10:21;;;;;;;16.33;12.15;;;5.10;99.90;;;;;;4914408;28;20079;-55
2023/04/15 03:12:48;;;;;;;21.08;13.88;;;5.10;99.90;;;;;;4919707;29;20042;-54
2023/04/15 03:15:14;;;;;;;21.88;12.88;;;5.00;99.90;;;;;;4922355;28;20134;-52
2023/04/15 03:17:40;;;;;;;18.42;12.57;;;5.00;99.90;;;;;;4916797;28;20047;-52
2023/04/15 03:20:06;;;;;;;18.88;13.05;;;5.00;99.90;;;;;;4915056;28;20046;-54
2023/04/15 03:22:32;;;;;;;21.35;13.38;;;5.00;99.90;;;;;;4919315;28;20047;-55
2023/04/15 03:24:58;;;;;;;21.95;13.82;;;4.90;99.90;;;;;;4921755;28;20075;-52
2023/04/15 03:27:24;;;;;;;20.48;13.77;;;4.90;99.90;;;;;;4915588;28;20118;-52
2023/04/15 03:29:59;;;;;;;20.58;13.57;;;5.00;99.90;;;;;;4916564;29;20426;-53
2023/04/15 03:32:26;;;;;;;19.40;13.48;;;4.90;99.90;;;;;;4917880;29;20047;-54
2023/04/15 03:34:51;;;;;;;20.00;13.55;;;4.90;99.90;;;;;;4918106;29;20375;-53
2023/04/15 03:37:17;;;;;;;20.50;13.65;;;4.90;99.90;;;;;;4917353;28;20152;-52
2023/04/15 03:39:43;;;;;;;17.48;12.27;;;4.90;99.90;;;;;;4920976;28;20036;-51
2023/04/15 03:42:08;;;;;;;22.17;13.70;;;4.90;99.90;;;;;;4915478;28;20043;-55
2023/04/15 03:44:34;;;;;;;19.60;13.65;;;4.80;99.90;;;;;;4919617;29;20043;-52
2023/04/15 03:47:00;;;;;;;19.52;13.43;;;4.90;99.90;;;;;;4924207;28;20071;-52
2023/04/15 03:49:25;;;;;;;20.63;13.90;;;4.80;99.90;;;;;;4927773;28;20073;-56
2023/04/15 03:51:51;;;;;;;18.65;12.73;;;4.80;99.90;;;;;;4920861;29;20051;-54
2023/04/15 03:54:16;;;;;;;17.95;12.98;;;4.80;99.90;;;;;;4921421;28;20039;-51
2023/04/15 03:56:42;;;;;;;18.08;13.02;;;4.80;99.90;;;;;;4922583;29;20391;-53
2023/04/15 03:59:08;;;;;;;27.05;15.23;;;4.80;99.90;;;;;;4924157;28;20055;-54
2023/04/15 04:01:34;;;;;;;24.73;13.73;;;4.70;99.90;;;;;;4917150;28;20054;-53
2023/04/15 04:04:00;;;;;;;18.90;13.50;;;4.70;99.90;;;;;;4922728;29;20043;-56
2023/04/15 04:06:26;;;;;;;20.55;13.60;;;4.70;99.90;;;;;;4920732;28;20159;-56
2023/04/15 04:08:51;;;;;;;20.70;14.30;;;4.70;99.90;;;;;;4921166;28;20051;-54
2023/04/15 04:11:17;;;;;;;22.10;12.93;;;4.70;99.90;;;;;;4922720;29;21495;-53
2023/04/15 04:13:43;;;;;;;22.15;14.85;;;4.60;99.90;;;;;;4922049;28;20043;-54
2023/04/15 04:16:08;;;;;;;22.83;15.13;;;4.60;99.90;;;;;;4922816;29;20039;-52
2023/04/15 04:18:34;;;;;;;22.10;15.23;;;4.70;99.90;;;;;;4924657;29;20043;-55
2023/04/15 04:21:00;;;;;;;23.83;14.82;;;4.60;99.90;;;;;;4926096;28;20491;-54
2023/04/15 04:23:26;;;;;;;22.20;14.13;;;4.60;99.90;;;;;;4932912;28;20127;-53
2023/04/15 04:25:52;;;;;;;19.27;13.40;;;4.60;99.90;;;;;;4932827;28;20047;-52
2023/04/15 04:28:18;;;;;;;17.98;13.00;;;4.70;99.90;;;;;;4930665;28;20070;-52
2023/04/15 04:30:44;;;;;;;17.00;12.73;;;4.60;99.90;;;;;;4932518;28;20055;-55
2023/04/15 04:33:09;;;;;;;18.05;12.60;;;4.60;99.90;;;;;;4930650;29;20493;-52
2023/04/15 04:35:36;;;;;;;18.40;12.30;;;4.60;99.90;;;;;;4932338;29;20498;-52
2023/04/15 04:38:03;;;;;;;17.05;12.68;;;4.50;99.90;;;;;;4933475;29;20091;-52
2023/04/15 04:40:29;;;;;;;17.83;12.63;;;4.60;99.90;;;;;;4927973;29;20044;-53
2023/04/15 04:42:54;;;;;;;17.10;12.50;;;4.50;99.90;;;;;;4931788;29;20086;-55
2023/04/15 04:45:20;;;;;;;18.52;12.60;;;4.60;99.90;;;;;;4931310;29;20373;-54
2023/04/15 04:47:46;;;;;;;18.70;12.65;;;4.50;99.90;;;;;;4930417;28;20143;-53
2023/04/15 04:50:12;;;;;;;17.90;13.23;;;4.50;99.90;;;;;;4928705;28;20062;-52
2023/04/15 04:52:38;;;;;;;20.38;13.88;;;4.50;99.90;;;;;;4924027;29;20426;-56
2023/04/15 04:55:04;;;;;;;19.52;13.57;;;4.50;99.90;;;;;;4926306;28;20055;-53
2023/04/15 04:57:30;;;;;;;16.63;11.65;;;4.40;99.90;;;;;;4926685;28;20055;-56
2023/04/15 04:59:56;;;;;;;14.70;9.95;;;4.40;99.90;;;;;;4927325;29;20518;-54
2023/04/15 05:02:22;;;;;;;13.65;9.57;;;4.40;99.90;;;;;;4933564;29;20043;-56
2023/04/15 05:04:49;;;;;;;12.77;9.57;;;4.30;99.90;;;;;;4927470;29;20491;-51
2023/04/15 05:07:14;;;;;;;11.80;9.63;;;4.30;99.90;;;;;;4926603;28;20177;-52
2023/04/15 05:09:40;;;;;;;14.68;11.02;;;4.30;99.90;;;;;;4928742;28;20051;-52
2023/04/15 05:12:07;;;;;;;14.05;10.63;;;4.20;99.90;;;;;;4927334;28;20048;-53
2023/04/15 05:14:33;;;;;;;19.20;12.93;;;4.20;99.90;;;;;;4929970;29;20058;-54
2023/04/15 05:16:59;;;;;;;19.48;13.98;;;4.20;99.90;;;;;;4928474;28;20047;-53
2023/04/15 05:19:25;;;;;;;17.90;13.23;;;4.10;99.90;;;;;;4930925;28;20075;-54
2023/04/15 05:21:51;;;;;;;19.80;14.02;;;4.10;99.90;;;;;;4932459;28;20054;-55
2023/04/15 05:24:17;;;;;;;21.33;13.52;;;4.10;99.90;;;;;;4927330;28;21217;-52
2023/04/15 05:26:42;;;;;;;20.83;14.68;;;4.10;99.90;;;;;;4929659;29;20046;-53
2023/04/15 05:29:08;;;;;;;21.02;13.93;;;4.10;99.90;;;;;;4926637;29;20249;-55
2023/04/15 05:31:35;;;;;;;20.88;14.35;;;4.10;99.90;;;;;;4929509;28;20036;-56
2023/04/15 05:34:01;;;;;;;18.08;12.95;;;4.10;99.90;;;;;;4927582;29;20086;-53
2023/04/15 05:36:27;;;;;;;20.15;13.02;;;4.10;99.90;;;;;;4922786;28;20558;-55
2023/04/15 05:38:53;;;;;;;21.77;13.93;;;4.10;99.90;;;;;;4924154;28;20079;-53
2023/04/15 05:41:19;;;;;;;18.55;13.23;;;4.20;99.90;;;;;;4919985;28;20047;-52
2023/04/15 05:43:45;;;;;;;19.05;13.43;;;4.20;99.90;;;;;;4923671;28;20135;-52
2023/04/15 05:46:11;;;;;;;19.80;13.77;;;4.20;99.90;;;;;;4923536;28;20047;-56
2023/04/15 05:48:37;;;;;;;19.55;13.20;;;4.20;99.90;;;;;;4922787;28;20148;-55
2023/04/15 05:51:03;;;;;;;15.48;11.95;;;4.20;99.90;;;;;;4927843;29;20989;-53
2023/04/15 05:53:28;;;;;;;22.38;13.60;;;4.30;99.90;;;;;;4908621;28;20044;-55
2023/04/15 05:55:54;;;;;;;19.00;13.60;;;4.30;99.90;;;;;;4924959;29;20565;-55
2023/04/15 05:58:20;;;;;;;17.13;12.52;;;4.40;99.90;;;;;;4927731;29;20046;-54
2023/04/15 06:00:46;;;;;;;18.70;13.45;;;4.40;99.90;;;;;;4925670;28;20043;-52
2023/04/15 06:03:12;;;;;;;22.00;14.55;;;4.50;99.90;;;;;;4917151;29;20505;-56
2023/04/15 06:05:37;;;;;;;24.52;14.55;;;4.60;99.90;;;;;;4918478;28;20047;-56
2023/04/15 06:08:03;;;;;;;26.30;15.57;;;4.60;99.90;;;;;;4919041;29;20498;-53
2023/04/15 06:10:29;;;;;;;25.95;15.98;;;4.80;99.90;;;;;;4925231;28;20433;-55
2023/04/15 06:12:55;;;;;;;30.85;18.05;;;4.90;99.90;;;;;;4919987;28;20048;-54
2023/04/15 06:15:21;;;;;;;32.17;16.85;;;5.00;99.90;;;;;;4913223;28;20054;-54
2023/04/15 06:17:47;;;;;;;28.60;17.50;;;5.10;99.90;;;;;;4910593;28;20062;-55
2023/04/15 06:20:13;;;;;;;30.98;17.15;;;5.20;99.90;;;;;;4907230;28;20845;-53
2023/04/15 06:22:39;;;;;;;27.95;16.85;;;5.30;99.90;;;;;;4892186;28;20050;-52
2023/04/15 06:25:07;;;;;;;29.65;17.52;;;5.40;99.90;;;;;;4902689;28;20582;-53
2023/04/15 06:27:33;;;;;;;28.15;16.88;;;5.50;99.90;;;;;;4888414;28;20047;-53
2023/04/15 06:29:59;;;;;;;28.10;16.17;;;5.70;99.90;;;;;;4900940;28;20050;-52
2023/04/15 06:32:25;;;;;;;26.90;15.82;;;5.80;99.90;;;;;;4898944;28;20043;-51
2023/04/15 06:34:51;;;;;;;30.00;17.20;;;5.80;99.90;;;;;;4893110;28;20386;-56
2023/04/15 06:37:17;;;;;;;29.33;16.08;;;6.00;99.90;;;;;;4898933;29;20162;-53
2023/04/15 06:39:43;;;;;;;27.73;16.98;;;6.10;99.90;;;;;;4897765;29;20122;-52
2023/04/15 06:42:10;;;;;;;26.70;15.18;;;6.20;99.90;;;;;;4892784;28;20410;-53
2023/04/15 06:44:36;;;;;;;24.08;14.88;;;6.40;99.90;;;;;;4910773;28;20059;-53
2023/04/15 06:47:02;;;;;;;29.67;15.73;;;6.40;99.90;;;;;;4910065;28;20431;-54
2023/04/15 06:49:28;;;;;;;29.08;15.70;;;6.60;99.90;;;;;;4912565;28;20475;-52
2023/04/15 06:51:54;;;;;;;28.73;16.25;;;6.70;99.90;;;;;;4917026;28;20059;-55
2023/04/15 06:54:20;;;;;;;29.88;15.68;;;6.90;99.90;;;;;;4918466;28;20040;-53
2023/04/15 06:56:46;;;;;;;27.50;15.45;;;7.00;99.90;;;;;;4920751;28;22049;-54
2023/04/15 06:59:13;;;;;;;25.80;14.90;;;7.20;99.90;;;;;;4921215;29;20043;-54
2023/04/15 07:01:40;;;;;;;25.13;14.93;;;7.30;99.90;;;;;;4915625;28;20394;-53
2023/04/15 07:04:06;;;;;;;23.45;13.93;;;7.40;99.90;;;;;;4916844;28;20052;-56
2023/04/15 07:06:32;;;;;;;23.33;14.10;;;7.60;99.90;;;;;;4918336;28;20104;-54
2023/04/15 07:08:58;;;;;;;23.35;13.30;;;7.60;99.90;;;;;;4924846;29;20061;-53
2023/04/15 07:11:27;;;;;;;21.38;12.60;;;7.70;99.90;;;;;;4919999;29;20047;-52
2023/04/15 07:13:52;;;;;;;19.45;11.38;;;7.70;99.90;;;;;;4922960;28;20109;-55
2023/04/15 07:16:18;;;;;;;22.40;11.40;;;7.80;99.90;;;;;;4928530;28;20356;-54
2023/04/15 07:18:44;;;;;;;17.33;11.02;;;7.90;99.90;;;;;;4928595;28;20062;-56
2023/04/15 07:21:10;;;;;;;17.35;9.60;;;7.90;99.90;;;;;;4933253;28;20054;-55
2023/04/15 07:23:36;;;;;;;17.30;9.25;;;7.90;99.90;;;;;;4928404;29;20039;-53
2023/04/15 07:26:02;;;;;;;11.70;8.85;;;8.00;99.90;;;;;;4919988;28;20043;-55
2023/04/15 07:28:28;;;;;;;14.38;8.75;;;8.00;99.90;;;;;;4929078;29;20055;-56
2023/04/15 07:30:56;;;;;;;12.32;8.02;;;8.10;99.90;;;;;;4928430;28;20101;-55
2023/04/15 07:33:22;;;;;;;13.27;7.78;;;8.10;99.90;;;;;;4932870;29;20335;-52
2023/04/15 07:35:48;;;;;;;10.63;7.70;;;8.20;99.90;;;;;;4932380;29;20135;-52
2023/04/15 07:38:13;;;;;;;14.10;8.63;;;8.20;99.90;;;;;;4935079;28;20043;-54
2023/04/15 07:40:41;;;;;;;14.02;8.43;;;8.30;99.90;;;;;;4933676;28;20035;-53
2023/04/15 07:43:07;;;;;;;15.82;8.63;;;8.30;99.90;;;;;;4931834;29;20048;-53
2023/04/15 07:45:34;;;;;;;14.85;9.25;;;8.30;99.90;;;;;;4934313;29;20110;-56
2023/04/15 07:48:01;;;;;;;16.05;9.32;;;8.40;99.90;;;;;;4932230;29;20052;-52
2023/04/15 07:50:27;;;;;;;16.15;9.52;;;8.50;99.90;;;;;;4914921;28;20070;-52
2023/04/15 07:52:53;;;;;;;15.30;9.35;;;8.50;99.90;;;;;;4926211;28;20056;-56
2023/04/15 07:55:21;;;;;;;16.98;9.48;;;8.50;99.90;;;;;;4928014;29;20055;-56
2023/04/15 07:57:47;;;;;;;15.15;9.20;;;8.50;99.90;;;;;;4932180;28;20048;-52
2023/04/15 08:00:13;;;;;;;13.98;8.20;;;8.60;99.90;;;;;;4936232;29;20486;-53
2023/04/15 08:02:40;;;;;;;15.38;8.27;;;8.60;99.90;;;;;;4928331;28;20118;-54
2023/04/15 08:05:06;;;;;;;12.43;7.47;;;8.50;99.90;;;;;;4923084;28;20047;-55
2023/04/15 08:07:32;;;;;;;12.93;7.97;;;8.60;99.90;;;;;;4924100;28;20043;-54
2023/04/15 08:09:58;;;;;;;10.60;7.35;;;8.60;99.90;;;;;;4922490;28;20400;-55
2023/04/15 08:12:24;;;;;;;11.73;6.78;;;8.60;99.90;;;;;;4921531;29;20379;-54
2023/04/15 08:14:51;;;;;;;10.15;6.50;;;8.60;99.90;;;;;;4925487;28;20051;-53
2023/04/15 08:17:16;;;;;;;11.23;6.50;;;8.60;99.90;;;;;;4913846;28;20055;-54
2023/04/15 08:19:42;;;;;;;10.07;6.63;;;8.60;99.90;;;;;;4920947;28;20420;-54
2023/04/15 08:22:09;;;;;;;11.88;6.20;;;8.70;99.90;;;;;;4914145;28;20683;-56
2023/04/15 08:24:34;;;;;;;10.32;5.72;;;8.70;99.90;;;;;;4923785;28;20508;-53
2023/04/15 08:27:03;;;;;;;7.78;5.20;;;8.70;99.90;;;;;;4902978;28;20047;-54
2023/04/15 08:29:28;;;;;;;11.27;5.20;;;8.70;99.90;;;;;;4908237;28;20054;-55
2023/04/15 08:31:54;;;;;;;8.25;4.53;;;8.70;99.90;;;;;;4905233;28;20110;-56
2023/04/15 08:34:20;;;;;;;7.72;4.63;;;8.70;99.90;;;;;;4906576;28;20078;-56
2023/04/15 08:36:46;;;;;;;7.53;3.97;;;8.70;99.90;;;;;;4923526;28;20920;-55
2023/04/15 08:39:11;;;;;;;6.38;4.13;;;8.70;99.90;;;;;;4925740;28;20043;-52
2023/04/15 08:41:49;;;;;;;8.20;3.75;;;8.70;99.90;;;;;;4925628;29;20439;-54
2023/04/15 08:44:15;;;;;;;13.93;4.85;;;8.70;99.90;;;;;;4932430;28;20565;-54
2023/04/15 08:46:41;;;;;;;7.60;3.85;;;8.70;99.90;;;;;;4934653;29;20051;-56
2023/04/15 08:49:14;;;;;;;7.82;3.95;;;8.80;99.90;;;;;;4930118;28;20336;-52
2023/04/15 08:51:40;;;;;;;4.80;3.47;;;8.80;99.90;;;;;;4920401;28;20143;-55
2023/04/15 08:54:07;;;;;;;7.93;3.72;;;8.80;99.90;;;;;;4924806;29;20386;-53
2023/04/15 08:56:34;;;;;;;5.78;3.22;;;8.80;99.90;;;;;;4913414;28;20424;-51
2023/04/15 08:59:01;;;;;;;7.60;3.33;;;8.80;99.90;;;;;;4912164;28;20043;-52
2023/04/15 09:01:27;;;;;;;6.30;3.42;;;8.70;99.90;;;;;;4923076;29;20106;-57
2023/04/15 09:03:53;;;;;;;5.93;3.53;;;8.70;99.90;;;;;;4927645;28;20047;-55
2023/04/15 09:06:20;;;;;;;8.48;3.97;;;8.70;99.90;;;;;;4919540;29;20057;-56
2023/04/15 09:08:46;;;;;;;10.18;3.83;;;8.60;99.90;;;;;;4927203;29;20122;-55
2023/04/15 09:11:12;;;;;;;9.50;4.18;;;8.60;99.90;;;;;;4922146;28;20074;-53
2023/04/15 09:13:38;;;;;;;11.70;4.35;;;8.60;99.90;;;;;;4925450;29;20186;-56
2023/04/15 09:16:05;;;;;;;6.25;3.50;;;8.60;99.90;;;;;;4919954;29;20166;-56
2023/04/15 09:18:33;;;;;;;6.32;3.05;;;8.60;99.90;;;;;;4918707;28;20050;-55
2023/04/15 09:21:10;;;;;;;6.13;2.90;;;8.70;99.90;;;;;;4925463;29;20445;-55
2023/04/15 09:23:38;;;;;;;5.55;2.80;;;8.70;99.90;;;;;;4919213;28;20162;-55
2023/04/15 09:26:05;;;;;;;5.85;3.20;;;8.70;99.90;;;;;;4917726;29;20047;-52
2023/04/15 09:28:31;;;;;;;8.52;3.78;;;8.70;99.90;;;;;;4925670;29;20487;-54
2023/04/15 09:30:58;;;;;;;4.65;2.88;;;8.70;99.90;;;;;;4925723;29;20040;-54
2023/04/15 09:33:26;;;;;;;10.70;2.92;;;8.70;99.90;;;;;;4925329;29;20066;-56
2023/04/15 09:36:03;;;;;;;5.10;3.00;;;8.70;99.90;;;;;;4924110;29;20055;-56
2023/04/15 09:38:29;;;;;;;11.35;2.95;;;8.70;99.90;;;;;;4925059;29;20068;-55
2023/04/15 09:40:56;;;;;;;6.70;2.83;;;8.80;99.90;;;;;;4919105;28;20051;-55
2023/04/15 09:43:23;;;;;;;6.05;2.20;;;8.80;99.90;;;;;;4918239;28;20050;-54
2023/04/15 09:45:52;;;;;;;4.15;2.05;;;8.90;99.90;;;;;;4918807;29;20392;-56
2023/04/15 09:48:26;;;;;;;6.75;2.13;;;9.00;99.90;;;;;;4919009;29;20058;-56
2023/04/15 09:50:53;;;;;;;3.08;1.90;;;9.10;99.90;;;;;;4922255;29;20067;-56
2023/04/15 09:53:21;;;;;;;2.47;1.80;;;9.20;99.90;;;;;;4926465;29;20122;-55
2023/04/15 09:55:51;;;;;;;4.30;1.80;;;9.30;99.90;;;;;;4927422;29;20126;-53
2023/04/15 09:58:28;;;;;;;4.57;1.63;;;9.30;99.90;;;;;;4925124;29;20585;-57
2023/04/15 10:00:55;;;;;;;3.72;2.10;;;9.30;99.90;;;;;;4922512;28;20718;-57
2023/04/15 10:03:22;;;;;;;3.50;1.63;;;9.40;99.90;;;;;;4926271;28;20444;-55
2023/04/15 10:05:49;;;;;;;6.60;1.90;;;9.40;99.90;;;;;;4928513;28;20065;-54
2023/04/15 10:08:21;;;;;;;4.70;1.88;;;9.40;99.90;;;;;;4908622;28;20932;-55
2023/04/15 10:10:48;;;;;;;4.68;2.13;;;9.40;99.90;;;;;;4920909;29;20133;-55
2023/04/15 10:13:18;;;;;;;3.75;2.05;;;9.50;99.90;;;;;;4925352;29;20560;-53
2023/04/15 10:15:47;;;;;;;9.00;2.10;;;9.60;99.90;;;;;;4916284;28;20110;-56
2023/04/15 10:18:18;;;;;;;5.53;2.88;;;9.60;99.90;;;;;;4913803;28;20043;-56
2023/04/15 10:20:45;;;;;;;5.63;2.20;;;9.60;99.90;;;;;;4917259;28;20567;-56
2023/04/15 10:23:11;;;;;;;7.72;2.20;;;9.60;99.90;;;;;;4918743;28;20048;-53
2023/04/15 10:25:38;;;;;;;5.75;2.40;;;9.50;99.90;;;;;;4922902;29;20128;-54
2023/04/15 10:28:05;;;;;;;5.32;2.25;;;9.50;99.90;;;;;;4917149;29;20054;-56
2023/04/15 10:30:32;;;;;;;7.07;2.60;;;9.50;99.90;;;;;;4920286;28;20043;-57
2023/04/15 10:32:59;;;;;;;3.30;2.40;;;9.50;99.90;;;;;;4914067;28;20047;-56
2023/04/15 10:35:26;;;;;;;5.75;2.45;;;9.60;99.90;;;;;;4918904;28;20043;-53
2023/04/15 10:37:51;;;;;;;6.88;2.53;;;9.60;99.90;;;;;;4920316;28;20574;-55
2023/04/15 10:40:31;;;;;;;5.10;2.55;;;9.60;99.90;;;;;;4914772;29;20051;-52
2023/04/15 10:42:59;;;;;;;4.90;2.50;;;9.60;99.90;;;;;;4907883;28;20059;-53
2023/04/15 10:45:33;;;;;;;6.82;2.42;;;9.50;99.90;;;;;;4915253;28;20096;-54
2023/04/15 10:48:02;;;;;;;5.82;2.63;;;9.50;99.90;;;;;;4914030;28;27569;-56
2023/04/15 10:50:30;;;;;;;5.38;2.75;;;9.50;99.90;;;;;;4916961;28;20097;-55
2023/04/15 10:52:56;;;;;;;8.05;2.80;;;9.50;99.90;;;;;;4916072;28;20078;-54
2023/04/15 10:55:24;;;;;;;6.43;2.92;;;9.50;99.90;;;;;;4918442;28;20051;-57
2023/04/15 10:57:57;;;;;;;8.80;3.20;;;9.50;99.90;;;;;;4916001;29;20047;-56
2023/04/15 11:00:30;;;;;;;8.48;2.55;;;9.50;99.90;;;;;;4915886;29;20050;-53
2023/04/15 11:02:59;;;;;;;8.55;2.70;;;9.50;99.90;;;;;;4917830;28;20074;-53
2023/04/15 11:05:50;;;;;;;7.85;2.88;;;9.50;99.90;;;;;;4917384;29;20409;-55
2023/04/15 11:08:16;;;;;;;7.68;2.90;;;9.60;99.90;;;;;;4915350;28;20051;-56
2023/04/15 11:10:42;;;;;;;7.30;2.47;;;9.60;99.90;;;;;;4905651;28;20043;-57
2023/04/15 11:13:10;;;;;;;5.53;2.00;;;9.60;99.90;;;;;;4907626;28;20052;-55
2023/04/15 11:15:41;;;;;;;7.50;2.25;;;9.70;99.90;;;;;;4915380;28;20055;-55
2023/04/15 11:18:07;;;;;;;6.30;2.30;;;9.70;99.90;;;;;;4912784;28;20148;-53
2023/04/15 11:20:33;;;;;;;5.70;2.10;;;9.80;99.90;;;;;;4913289;28;20508;-56
2023/04/15 11:22:59;;;;;;;8.77;1.90;;;9.80;99.90;;;;;;4916411;28;20101;-55
2023/04/15 11:25:29;;;;;;;7.97;2.60;;;9.80;99.90;;;;;;4913556;29;20569;-55
2023/04/15 11:27:56;;;;;;;8.63;3.35;;;9.90;99.90;;;;;;4915016;29;20046;-54
2023/04/15 11:30:31;;;;;;;9.23;3.00;;;9.80;99.90;;;;;;4917332;28;20066;-55
2023/04/15 11:33:02;;;;;;;6.90;2.60;;;9.90;99.90;;;;;;4918838;28;20111;-53
2023/04/15 11:35:29;;;;;;;6.97;2.00;;;9.80;99.90;;;;;;4916814;29;20554;-56
2023/04/15 11:37:55;;;;;;;8.27;2.70;;;9.80;99.90;;;;;;4916922;29;20478;-54
2023/04/15 11:40:29;;;;;;;8.73;2.42;;;9.80;99.90;;;;;;4917807;29;20049;-53
2023/04/15 11:43:15;;;;;;;7.07;2.55;;;9.80;99.90;;;;;;4918303;29;20570;-54
2023/04/15 11:45:56;;;;;;;9.88;2.47;;;9.80;99.90;;;;;;4917787;28;20051;-55
2023/04/15 11:48:26;;;;;;;7.38;2.30;;;9.70;99.90;;;;;;4918326;28;20055;-56
2023/04/15 11:51:04;;;;;;;9.88;2.72;;;9.70;99.90;;;;;;4935034;28;20500;-52
2023/04/15 11:53:46;;;;;;;11.45;2.58;;;9.70;99.90;;;;;;4922291;29;20479;-55
2023/04/15 11:56:25;;;;;;;7.63;2.38;;;9.70;99.90;;;;;;4929209;29;20053;-55
2023/04/15 11:58:58;;;;;;;11.68;2.55;;;9.70;99.90;;;;;;4931751;29;20359;-55
2023/04/15 12:01:35;;;;;;;11.35;2.45;;;9.70;99.90;;;;;;4927747;29;20051;-56
2023/04/15 12:04:02;;;;;;;7.70;2.42;;;9.70;99.90;;;;;;4926474;28;20047;-52
2023/04/15 12:06:33;;;;;;;8.93;2.30;;;9.70;99.90;;;;;;4945191;28;20048;-54
2023/04/15 12:09:05;;;;;;;10.23;2.58;;;9.70;99.90;;;;;;4929183;29;20676;-52
2023/04/15 12:11:37;;;;;;;10.70;2.13;;;9.80;99.90;;;;;;4932616;29;20051;-56
2023/04/15 12:14:11;;;;;;;8.55;1.90;;;9.70;99.90;;;;;;4926586;29;20038;-54
2023/04/15 12:16:46;;;;;;;6.95;2.05;;;9.70;99.90;;;;;;4925625;29;20058;-56
2023/04/15 12:19:17;;;;;;;11.68;2.45;;;9.70;99.90;;;;;;4912759;28;20054;-53
2023/04/15 12:21:49;;;;;;;10.07;2.75;;;9.70;99.90;;;;;;4931161;28;20740;-57
2023/04/15 12:24:18;;;;;;;6.47;2.03;;;9.80;99.90;;;;;;4920262;28;20723;-56
2023/04/15 12:26:47;;;;;;;10.07;1.92;;;9.70;99.90;;;;;;4926160;28;20047;-55
2023/04/15 12:29:15;;;;;;;7.80;2.30;;;9.80;99.90;;;;;;4914450;28;20050;-56
2023/04/15 12:31:58;;;;;;;11.60;2.33;;;9.80;99.90;;;;;;4915529;29;20676;-56
2023/04/15 12:34:28;;;;;;;;;;;9.80;99.90;;;;;;4922824;28;20048;-57
2023/04/15 12:36:54;;;;;;;10.00;2.45;;;9.80;99.90;;;;;;4923370;28;21405;-54
2023/04/15 12:39:24;;;;;;;14.77;2.90;;;9.80;99.90;;;;;;4926055;28;20496;-55
2023/04/15 12:41:50;;;;;;;11.30;2.20;;;9.80;99.90;;;;;;4906746;28;20785;-56
2023/04/15 12:44:16;;;;;;;11.43;2.20;;;9.80;99.90;;;;;;4920653;29;20078;-55